sensor_id;sensor_type;location;lat;lon;timestamp;temperature;humidity
42479;DHT22;28110;47.080;9.476;2024-01-11T00:00:05;-2.20;99.90
42479;DHT22;28110;47.080;9.476;2024-01-11T00:02:30;-2.20;99.90
42479;DHT22;28110;47.080;9.476;2024-01-11T00:04:56;-2.20;99.90
42479;DHT22;28110;47.080;9.476;2024-01-11T00:07:22;-2.30;99.90
42479;DHT22;28110;47.080;9.476;2024-01-11T00:09:47;-2.30;99.90
42479;DHT22;28110;47.080;9.476;2024-01-11T00:12:13;-2.20;99.90
42479;DHT22;28110;47.080;9.476;2024-01-11T00:14:38;-2.30;99.90
42479;DHT22;28110;47.080;9.476;2024-01-11T00:17:04;-2.20;99.90
42479;DHT22;28110;47.080;9.476;2024-01-11T00:19:29;-2.20;99.90
42479;DHT22;28110;47.080;9.476;2024-01-11T00:21:55;-2.20;99.90
42479;DHT22;28110;47.080;9.476;2024-01-11T00:24:20;-2.20;99.90
42479;DHT22;28110;47.080;9.476;2024-01-11T00:26:46;-2.20;99.90
42479;DHT22;28110;47.080;9.476;2024-01-11T00:29:11;-2.20;99.90
42479;DHT22;28110;47.080;9.476;2024-01-11T00:31:37;-2.20;99.90
42479;DHT22;28110;47.080;9.476;2024-01-11T00:34:04;-2.20;99.90
42479;DHT22;28110;47.080;9.476;2024-01-11T00:36:29;-2.20;99.90
42479;DHT22;28110;47.080;9.476;2024-01-11T00:38:55;-2.30;99.90
42479;DHT22;28110;47.080;9.476;2024-01-11T00:41:20;-2.20;99.90
42479;DHT22;28110;47.080;9.476;2024-01-11T00:43:46;-2.20;99.90
42479;DHT22;28110;47.080;9.476;2024-01-11T00:46:12;-2.20;99.90
42479;DHT22;28110;47.080;9.476;2024-01-11T00:48:38;-2.20;99.90
42479;DHT22;28110;47.080;9.476;2024-01-11T00:51:06;-2.20;99.90
42479;DHT22;28110;47.080;9.476;2024-01-11T00:53:32;-2.20;99.90
42479;DHT22;28110;47.080;9.476;2024-01-11T00:55:59;-2.20;99.90
42479;DHT22;28110;47.080;9.476;2024-01-11T00:58:24;-2.10;99.90
42479;DHT22;28110;47.080;9.476;2024-01-11T01:00:50;-2.10;99.90
42479;DHT22;28110;47.080;9.476;2024-01-11T01:03:15;-2.10;99.90
42479;DHT22;28110;47.080;9.476;2024-01-11T01:05:44;-2.00;99.90
42479;DHT22;28110;47.080;9.476;2024-01-11T01:08:10;-2.00;99.90
42479;DHT22;28110;47.080;9.476;2024-01-11T01:10:35;-1.90;99.90
42479;DHT22;28110;47.080;9.476;2024-01-11T01:13:01;-2.00;99.90
42479;DHT22;28110;47.080;9.476;2024-01-11T01:15:26;-2.00;99.90
42479;DHT22;28110;47.080;9.476;2024-01-11T01:17:52;-2.00;99.90
42479;DHT22;28110;47.080;9.476;2024-01-11T01:20:17;-2.00;99.90
42479;DHT22;28110;47.080;9.476;2024-01-11T01:22:43;-2.00;99.90
42479;DHT22;28110;47.080;9.476;2024-01-11T01:25:09;-2.00;99.90
42479;DHT22;28110;47.080;9.476;2024-01-11T01:27:34;-2.00;99.90
42479;DHT22;28110;47.080;9.476;2024-01-11T01:30:00;-2.10;99.90
42479;DHT22;28110;47.080;9.476;2024-01-11T01:32:25;-2.10;99.90
42479;DHT22;28110;47.080;9.476;2024-01-11T01:34:51;-2.10;99.90
42479;DHT22;28110;47.080;9.476;2024-01-11T01:37:16;-2.10;99.90
42479;DHT22;28110;47.080;9.476;2024-01-11T01:39:42;-2.10;99.90
42479;DHT22;28110;47.080;9.476;2024-01-11T01:42:07;-2.20;99.90
42479;DHT22;28110;47.080;9.476;2024-01-11T01:44:33;-2.10;99.90
42479;DHT22;28110;47.080;9.476;2024-01-11T01:46:59;-2.10;99.90
42479;DHT22;28110;47.080;9.476;2024-01-11T01:49:25;-2.10;99.90
42479;DHT22;28110;47.080;9.476;2024-01-11T01:51:52;-2.10;99.90
42479;DHT22;28110;47.080;9.476;2024-01-11T01:54:19;-2.00;99.90
42479;DHT22;28110;47.080;9.476;2024-01-11T01:56:46;-2.00;99.90
42479;DHT22;28110;47.080;9.476;2024-01-11T01:59:12;-2.00;99.90
42479;DHT22;28110;47.080;9.476;2024-01-11T02:01:39;-1.90;99.90
42479;DHT22;28110;47.080;9.476;2024-01-11T02:04:05;-1.90;99.90
42479;DHT22;28110;47.080;9.476;2024-01-11T02:06:33;-1.90;99.90
42479;DHT22;28110;47.080;9.476;2024-01-11T02:09:00;-1.90;99.90
42479;DHT22;28110;47.080;9.476;2024-01-11T02:11:28;-1.80;99.90
42479;DHT22;28110;47.080;9.476;2024-01-11T02:13:55;-1.80;99.90
42479;DHT22;28110;47.080;9.476;2024-01-11T02:16:20;-1.80;99.90
42479;DHT22;28110;47.080;9.476;2024-01-11T02:18:46;-1.80;99.90
42479;DHT22;28110;47.080;9.476;2024-01-11T02:21:14;-1.80;99.90
42479;DHT22;28110;47.080;9.476;2024-01-11T02:23:52;-1.80;99.90
42479;DHT22;28110;47.080;9.476;2024-01-11T02:26:17;-1.70;99.90
42479;DHT22;28110;47.080;9.476;2024-01-11T02:28:44;-1.70;99.90
42479;DHT22;28110;47.080;9.476;2024-01-11T02:31:11;-1.70;99.90
42479;DHT22;28110;47.080;9.476;2024-01-11T02:33:38;-1.70;99.90
42479;DHT22;28110;47.080;9.476;2024-01-11T02:36:05;-1.60;99.90
42479;DHT22;28110;47.080;9.476;2024-01-11T02:38:31;-1.60;99.90
42479;DHT22;28110;47.080;9.476;2024-01-11T02:40:59;-1.60;99.90
42479;DHT22;28110;47.080;9.476;2024-01-11T02:43:24;-1.50;99.90
42479;DHT22;28110;47.080;9.476;2024-01-11T02:45:53;-1.50;99.90
42479;DHT22;28110;47.080;9.476;2024-01-11T02:48:19;-1.50;99.90
42479;DHT22;28110;47.080;9.476;2024-01-11T02:50:44;-1.50;99.90
42479;DHT22;28110;47.080;9.476;2024-01-11T02:53:10;-1.40;99.90
42479;DHT22;28110;47.080;9.476;2024-01-11T02:55:35;-1.40;99.90
42479;DHT22;28110;47.080;9.476;2024-01-11T02:58:01;-1.30;99.90
42479;DHT22;28110;47.080;9.476;2024-01-11T03:00:26;-1.30;99.90
42479;DHT22;28110;47.080;9.476;2024-01-11T03:02:52;-1.30;99.90
42479;DHT22;28110;47.080;9.476;2024-01-11T03:05:17;-1.30;99.90
42479;DHT22;28110;47.080;9.476;2024-01-11T03:07:43;-1.20;99.90
42479;DHT22;28110;47.080;9.476;2024-01-11T03:10:09;-1.20;99.90
42479;DHT22;28110;47.080;9.476;2024-01-11T03:12:35;-1.20;99.90
42479;DHT22;28110;47.080;9.476;2024-01-11T03:15:00;-1.20;99.90
42479;DHT22;28110;47.080;9.476;2024-01-11T03:17:26;-1.10;99.90
42479;DHT22;28110;47.080;9.476;2024-01-11T03:19:51;-1.10;99.90
42479;DHT22;28110;47.080;9.476;2024-01-11T03:22:17;-1.10;99.90
42479;DHT22;28110;47.080;9.476;2024-01-11T03:24:42;-1.10;99.90
42479;DHT22;28110;47.080;9.476;2024-01-11T03:27:08;-1.10;99.90
42479;DHT22;28110;47.080;9.476;2024-01-11T03:29:33;-1.10;99.90
42479;DHT22;28110;47.080;9.476;2024-01-11T03:31:59;-1.10;99.90
42479;DHT22;28110;47.080;9.476;2024-01-11T03:34:24;-1.00;99.90
42479;DHT22;28110;47.080;9.476;2024-01-11T03:36:50;-1.00;99.90
42479;DHT22;28110;47.080;9.476;2024-01-11T03:39:15;-1.00;99.90
42479;DHT22;28110;47.080;9.476;2024-01-11T03:41:47;-1.00;99.90
42479;DHT22;28110;47.080;9.476;2024-01-11T03:44:12;-0.90;99.90
42479;DHT22;28110;47.080;9.476;2024-01-11T03:46:38;-1.00;99.90
42479;DHT22;28110;47.080;9.476;2024-01-11T03:49:04;-0.90;99.90
42479;DHT22;28110;47.080;9.476;2024-01-11T03:51:29;-0.90;99.90
42479;DHT22;28110;47.080;9.476;2024-01-11T03:53:55;-1.00;99.90
42479;DHT22;28110;47.080;9.476;2024-01-11T03:56:20;-1.00;99.90
42479;DHT22;28110;47.080;9.476;2024-01-11T03:58:46;-1.00;99.90
42479;DHT22;28110;47.080;9.476;2024-01-11T04:01:12;-1.00;99.90
42479;DHT22;28110;47.080;9.476;2024-01-11T04:03:37;-1.00;99.90
42479;DHT22;28110;47.080;9.476;2024-01-11T04:06:03;-1.00;99.90
42479;DHT22;28110;47.080;9.476;2024-01-11T04:08:29;-1.00;99.90
42479;DHT22;28110;47.080;9.476;2024-01-11T04:10:54;-1.00;99.90
42479;DHT22;28110;47.080;9.476;2024-01-11T04:13:20;-1.00;99.90
42479;DHT22;28110;47.080;9.476;2024-01-11T04:15:46;-1.00;99.90
42479;DHT22;28110;47.080;9.476;2024-01-11T04:18:12;-1.00;99.90
42479;DHT22;28110;47.080;9.476;2024-01-11T04:20:37;-1.00;99.90
42479;DHT22;28110;47.080;9.476;2024-01-11T04:23:03;-0.90;99.90
42479;DHT22;28110;47.080;9.476;2024-01-11T04:25:29;-0.90;99.90
42479;DHT22;28110;47.080;9.476;2024-01-11T04:27:54;-0.90;99.90
42479;DHT22;28110;47.080;9.476;2024-01-11T04:30:20;-0.90;99.90
42479;DHT22;28110;47.080;9.476;2024-01-11T04:32:45;-0.90;99.90
42479;DHT22;28110;47.080;9.476;2024-01-11T04:35:11;-0.90;99.90
42479;DHT22;28110;47.080;9.476;2024-01-11T04:37:36;-0.90;99.90
42479;DHT22;28110;47.080;9.476;2024-01-11T04:40:02;-0.80;99.90
42479;DHT22;28110;47.080;9.476;2024-01-11T04:42:28;-0.90;99.90
42479;DHT22;28110;47.080;9.476;2024-01-11T04:44:54;-0.90;99.90
42479;DHT22;28110;47.080;9.476;2024-01-11T04:47:20;-0.90;99.90
42479;DHT22;28110;47.080;9.476;2024-01-11T04:49:45;-0.90;99.90
42479;DHT22;28110;47.080;9.476;2024-01-11T04:52:11;-0.90;99.90
42479;DHT22;28110;47.080;9.476;2024-01-11T04:54:36;-0.90;99.90
42479;DHT22;28110;47.080;9.476;2024-01-11T04:57:03;-0.90;99.90
42479;DHT22;28110;47.080;9.476;2024-01-11T04:59:28;-0.90;99.90
42479;DHT22;28110;47.080;9.476;2024-01-11T05:01:54;-0.90;99.90
42479;DHT22;28110;47.080;9.476;2024-01-11T05:04:20;-0.90;99.90
42479;DHT22;28110;47.080;9.476;2024-01-11T05:06:45;-1.00;99.90
42479;DHT22;28110;47.080;9.476;2024-01-11T05:09:11;-0.90;99.90
42479;DHT22;28110;47.080;9.476;2024-01-11T05:11:36;-0.90;99.90
42479;DHT22;28110;47.080;9.476;2024-01-11T05:14:02;-0.90;99.90
42479;DHT22;28110;47.080;9.476;2024-01-11T05:16:28;-0.90;99.90
42479;DHT22;28110;47.080;9.476;2024-01-11T05:18:56;-0.90;99.90
42479;DHT22;28110;47.080;9.476;2024-01-11T05:21:23;-0.90;99.90
42479;DHT22;28110;47.080;9.476;2024-01-11T05:23:49;-0.90;99.90
42479;DHT22;28110;47.080;9.476;2024-01-11T05:26:15;-0.90;99.90
42479;DHT22;28110;47.080;9.476;2024-01-11T05:28:41;-0.90;99.90
42479;DHT22;28110;47.080;9.476;2024-01-11T05:31:11;-0.90;99.90
42479;DHT22;28110;47.080;9.476;2024-01-11T05:33:38;-0.90;99.90
42479;DHT22;28110;47.080;9.476;2024-01-11T05:36:03;-0.90;99.90
42479;DHT22;28110;47.080;9.476;2024-01-11T05:38:29;-0.90;99.90
42479;DHT22;28110;47.080;9.476;2024-01-11T05:40:55;-0.90;99.90
42479;DHT22;28110;47.080;9.476;2024-01-11T05:43:22;-0.90;99.90
42479;DHT22;28110;47.080;9.476;2024-01-11T05:45:47;-0.80;99.90
42479;DHT22;28110;47.080;9.476;2024-01-11T05:48:13;-0.80;99.90
42479;DHT22;28110;47.080;9.476;2024-01-11T05:50:38;-0.90;99.90
42479;DHT22;28110;47.080;9.476;2024-01-11T05:53:04;-0.80;99.90
42479;DHT22;28110;47.080;9.476;2024-01-11T05:55:29;-0.80;99.90
42479;DHT22;28110;47.080;9.476;2024-01-11T05:57:55;-0.80;99.90
42479;DHT22;28110;47.080;9.476;2024-01-11T06:00:20;-0.80;99.90
42479;DHT22;28110;47.080;9.476;2024-01-11T06:02:46;-0.80;99.90
42479;DHT22;28110;47.080;9.476;2024-01-11T06:05:11;-0.80;99.90
42479;DHT22;28110;47.080;9.476;2024-01-11T06:07:40;-0.80;99.90
42479;DHT22;28110;47.080;9.476;2024-01-11T06:10:07;-0.80;99.90
42479;DHT22;28110;47.080;9.476;2024-01-11T06:12:34;-0.80;99.90
42479;DHT22;28110;47.080;9.476;2024-01-11T06:15:00;-0.70;99.90
42479;DHT22;28110;47.080;9.476;2024-01-11T06:17:26;-0.70;99.90
42479;DHT22;28110;47.080;9.476;2024-01-11T06:19:52;-0.60;99.90
42479;DHT22;28110;47.080;9.476;2024-01-11T06:22:17;-0.60;99.90
42479;DHT22;28110;47.080;9.476;2024-01-11T06:24:43;-0.60;99.90
42479;DHT22;28110;47.080;9.476;2024-01-11T06:27:09;-0.60;99.90
42479;DHT22;28110;47.080;9.476;2024-01-11T06:29:35;-0.60;99.90
42479;DHT22;28110;47.080;9.476;2024-01-11T06:32:00;-0.50;99.90
42479;DHT22;28110;47.080;9.476;2024-01-11T06:34:26;-0.50;99.90
42479;DHT22;28110;47.080;9.476;2024-01-11T06:36:52;-0.60;99.90
42479;DHT22;28110;47.080;9.476;2024-01-11T06:39:17;-0.50;99.90
42479;DHT22;28110;47.080;9.476;2024-01-11T06:41:43;-0.60;99.90
42479;DHT22;28110;47.080;9.476;2024-01-11T06:44:08;-0.50;99.90
42479;DHT22;28110;47.080;9.476;2024-01-11T06:46:34;-0.50;99.90
42479;DHT22;28110;47.080;9.476;2024-01-11T06:49:01;-0.50;99.90
42479;DHT22;28110;47.080;9.476;2024-01-11T06:51:27;-0.50;99.90
42479;DHT22;28110;47.080;9.476;2024-01-11T06:53:52;-0.40;99.90
42479;DHT22;28110;47.080;9.476;2024-01-11T06:56:19;-0.40;99.90
42479;DHT22;28110;47.080;9.476;2024-01-11T06:58:46;-0.40;99.90
42479;DHT22;28110;47.080;9.476;2024-01-11T07:01:11;-0.40;99.90
42479;DHT22;28110;47.080;9.476;2024-01-11T07:03:38;-0.40;99.90
42479;DHT22;28110;47.080;9.476;2024-01-11T07:06:03;-0.40;99.90
42479;DHT22;28110;47.080;9.476;2024-01-11T07:08:30;-0.40;99.90
42479;DHT22;28110;47.080;9.476;2024-01-11T07:10:55;-0.40;99.90
42479;DHT22;28110;47.080;9.476;2024-01-11T07:13:22;-0.40;99.90
42479;DHT22;28110;47.080;9.476;2024-01-11T07:15:47;-0.40;99.90
42479;DHT22;28110;47.080;9.476;2024-01-11T07:18:14;-0.50;99.90
42479;DHT22;28110;47.080;9.476;2024-01-11T07:20:40;-0.50;99.90
42479;DHT22;28110;47.080;9.476;2024-01-11T07:23:05;-0.50;99.90
42479;DHT22;28110;47.080;9.476;2024-01-11T07:25:31;-0.60;99.90
42479;DHT22;28110;47.080;9.476;2024-01-11T07:27:57;-0.60;99.90
42479;DHT22;28110;47.080;9.476;2024-01-11T07:30:22;-0.60;99.90
42479;DHT22;28110;47.080;9.476;2024-01-11T07:32:48;-0.70;99.90
42479;DHT22;28110;47.080;9.476;2024-01-11T07:35:14;-0.60;99.90
42479;DHT22;28110;47.080;9.476;2024-01-11T07:37:40;-0.60;99.90
42479;DHT22;28110;47.080;9.476;2024-01-11T07:40:06;-0.70;99.90
42479;DHT22;28110;47.080;9.476;2024-01-11T07:42:37;-0.70;99.90
42479;DHT22;28110;47.080;9.476;2024-01-11T07:45:04;-0.70;99.90
42479;DHT22;28110;47.080;9.476;2024-01-11T07:47:30;-0.80;99.90
42479;DHT22;28110;47.080;9.476;2024-01-11T07:49:56;-0.80;99.90
42479;DHT22;28110;47.080;9.476;2024-01-11T07:52:21;-0.80;99.90
42479;DHT22;28110;47.080;9.476;2024-01-11T07:54:47;-0.80;99.90
42479;DHT22;28110;47.080;9.476;2024-01-11T07:57:12;-0.70;99.90
42479;DHT22;28110;47.080;9.476;2024-01-11T07:59:39;-0.70;99.90
42479;DHT22;28110;47.080;9.476;2024-01-11T08:02:04;-0.70;99.90
42479;DHT22;28110;47.080;9.476;2024-01-11T08:04:31;-0.70;99.90
42479;DHT22;28110;47.080;9.476;2024-01-11T08:06:57;-0.70;99.90
42479;DHT22;28110;47.080;9.476;2024-01-11T08:09:28;-0.60;99.90
42479;DHT22;28110;47.080;9.476;2024-01-11T08:11:54;-0.60;99.90
42479;DHT22;28110;47.080;9.476;2024-01-11T08:14:20;-0.50;99.90
42479;DHT22;28110;47.080;9.476;2024-01-11T08:16:46;-0.40;99.90
42479;DHT22;28110;47.080;9.476;2024-01-11T08:19:12;-0.30;99.90
42479;DHT22;28110;47.080;9.476;2024-01-11T08:21:40;-0.30;99.90
42479;DHT22;28110;47.080;9.476;2024-01-11T08:24:06;-0.20;99.90
42479;DHT22;28110;47.080;9.476;2024-01-11T08:26:32;-0.20;99.90
42479;DHT22;28110;47.080;9.476;2024-01-11T08:28:58;-0.20;99.90
42479;DHT22;28110;47.080;9.476;2024-01-11T08:31:23;-0.30;99.90
42479;DHT22;28110;47.080;9.476;2024-01-11T08:33:49;-0.30;99.90
42479;DHT22;28110;47.080;9.476;2024-01-11T08:36:16;-0.20;99.90
42479;DHT22;28110;47.080;9.476;2024-01-11T08:38:41;-0.20;99.90
42479;DHT22;28110;47.080;9.476;2024-01-11T08:41:07;-0.20;99.90
42479;DHT22;28110;47.080;9.476;2024-01-11T08:43:32;-0.20;99.90
42479;DHT22;28110;47.080;9.476;2024-01-11T08:45:58;-0.20;99.90
42479;DHT22;28110;47.080;9.476;2024-01-11T08:48:24;-0.20;99.90
42479;DHT22;28110;47.080;9.476;2024-01-11T08:50:50;-0.20;99.90
42479;DHT22;28110;47.080;9.476;2024-01-11T08:53:15;-0.20;99.90
42479;DHT22;28110;47.080;9.476;2024-01-11T08:55:41;-0.30;99.90
42479;DHT22;28110;47.080;9.476;2024-01-11T08:58:08;-0.30;99.90
42479;DHT22;28110;47.080;9.476;2024-01-11T09:00:33;-0.30;99.90
42479;DHT22;28110;47.080;9.476;2024-01-11T09:02:59;-0.40;99.90
42479;DHT22;28110;47.080;9.476;2024-01-11T09:05:25;-0.30;99.90
42479;DHT22;28110;47.080;9.476;2024-01-11T09:07:50;-0.30;99.90
42479;DHT22;28110;47.080;9.476;2024-01-11T09:10:16;-0.30;99.90
42479;DHT22;28110;47.080;9.476;2024-01-11T09:12:41;-0.30;99.90
42479;DHT22;28110;47.080;9.476;2024-01-11T09:15:07;-0.30;99.90
42479;DHT22;28110;47.080;9.476;2024-01-11T09:17:33;-0.20;99.90
42479;DHT22;28110;47.080;9.476;2024-01-11T09:19:58;-0.20;99.90
42479;DHT22;28110;47.080;9.476;2024-01-11T09:22:24;-0.20;99.90
42479;DHT22;28110;47.080;9.476;2024-01-11T09:24:50;-0.10;99.90
42479;DHT22;28110;47.080;9.476;2024-01-11T09:27:16;-0.10;99.90
42479;DHT22;28110;47.080;9.476;2024-01-11T09:29:45;-0.10;99.90
42479;DHT22;28110;47.080;9.476;2024-01-11T09:32:11;-0.10;99.90
42479;DHT22;28110;47.080;9.476;2024-01-11T09:34:37;-0.10;99.90
42479;DHT22;28110;47.080;9.476;2024-01-11T09:37:02;-0.10;99.90
42479;DHT22;28110;47.080;9.476;2024-01-11T09:39:29;-0.10;99.90
42479;DHT22;28110;47.080;9.476;2024-01-11T09:42:08;-0.10;99.90
42479;DHT22;28110;47.080;9.476;2024-01-11T09:44:37;-0.10;99.90
42479;DHT22;28110;47.080;9.476;2024-01-11T09:47:04;-0.10;99.90
42479;DHT22;28110;47.080;9.476;2024-01-11T09:49:31;-0.10;99.90
42479;DHT22;28110;47.080;9.476;2024-01-11T09:52:00;0.00;99.90
42479;DHT22;28110;47.080;9.476;2024-01-11T09:54:26;0.00;99.90
42479;DHT22;28110;47.080;9.476;2024-01-11T09:56:54;0.10;99.90
42479;DHT22;28110;47.080;9.476;2024-01-11T09:59:21;0.10;99.90
42479;DHT22;28110;47.080;9.476;2024-01-11T10:01:50;0.20;99.90
42479;DHT22;28110;47.080;9.476;2024-01-11T10:04:16;0.10;99.90
42479;DHT22;28110;47.080;9.476;2024-01-11T10:06:42;0.20;99.90
42479;DHT22;28110;47.080;9.476;2024-01-11T10:09:09;0.10;99.90
42479;DHT22;28110;47.080;9.476;2024-01-11T10:11:35;0.20;99.90
42479;DHT22;28110;47.080;9.476;2024-01-11T10:14:00;0.30;99.90
42479;DHT22;28110;47.080;9.476;2024-01-11T10:16:28;0.30;99.90
42479;DHT22;28110;47.080;9.476;2024-01-11T10:18:54;0.40;99.90
42479;DHT22;28110;47.080;9.476;2024-01-11T10:21:20;0.40;99.90
42479;DHT22;28110;47.080;9.476;2024-01-11T10:23:46;0.40;99.90
42479;DHT22;28110;47.080;9.476;2024-01-11T10:26:12;0.40;99.90
42479;DHT22;28110;47.080;9.476;2024-01-11T10:28:45;0.40;99.90
42479;DHT22;28110;47.080;9.476;2024-01-11T10:31:12;0.50;99.90
42479;DHT22;28110;47.080;9.476;2024-01-11T10:33:38;0.60;99.90
42479;DHT22;28110;47.080;9.476;2024-01-11T10:36:05;0.50;99.90
42479;DHT22;28110;47.080;9.476;2024-01-11T10:38:35;0.50;99.90
42479;DHT22;28110;47.080;9.476;2024-01-11T10:41:04;0.40;99.90
42479;DHT22;28110;47.080;9.476;2024-01-11T10:43:31;0.40;99.90
42479;DHT22;28110;47.080;9.476;2024-01-11T10:45:59;0.30;99.90
42479;DHT22;28110;47.080;9.476;2024-01-11T10:48:27;0.40;99.90
42479;DHT22;28110;47.080;9.476;2024-01-11T10:51:00;0.30;99.90
42479;DHT22;28110;47.080;9.476;2024-01-11T10:53:52;0.30;99.90
42479;DHT22;28110;47.080;9.476;2024-01-11T10:56:19;0.40;99.90
42479;DHT22;28110;47.080;9.476;2024-01-11T10:58:45;0.40;99.90
42479;DHT22;28110;47.080;9.476;2024-01-11T11:01:13;0.40;99.90
42479;DHT22;28110;47.080;9.476;2024-01-11T11:03:39;0.40;99.90
42479;DHT22;28110;47.080;9.476;2024-01-11T11:06:09;0.30;99.90
42479;DHT22;28110;47.080;9.476;2024-01-11T11:08:36;0.30;99.90
42479;DHT22;28110;47.080;9.476;2024-01-11T11:11:03;0.30;99.90
42479;DHT22;28110;47.080;9.476;2024-01-11T11:13:32;0.30;99.90
42479;DHT22;28110;47.080;9.476;2024-01-11T11:15:58;0.40;99.90
42479;DHT22;28110;47.080;9.476;2024-01-11T11:18:24;0.40;99.90
42479;DHT22;28110;47.080;9.476;2024-01-11T11:20:51;0.30;99.90
42479;DHT22;28110;47.080;9.476;2024-01-11T11:23:18;0.20;99.90
42479;DHT22;28110;47.080;9.476;2024-01-11T11:25:48;0.20;99.90
42479;DHT22;28110;47.080;9.476;2024-01-11T11:28:16;0.20;99.90
42479;DHT22;28110;47.080;9.476;2024-01-11T11:30:44;0.10;99.90
42479;DHT22;28110;47.080;9.476;2024-01-11T11:35:36;0.30;99.90
42479;DHT22;28110;47.080;9.476;2024-01-11T11:38:02;0.20;99.90
42479;DHT22;28110;47.080;9.476;2024-01-11T11:40:37;0.30;99.90
42479;DHT22;28110;47.080;9.476;2024-01-11T11:43:05;0.30;99.90
42479;DHT22;28110;47.080;9.476;2024-01-11T11:45:31;0.20;99.90
42479;DHT22;28110;47.080;9.476;2024-01-11T11:47:57;0.20;99.90
42479;DHT22;28110;47.080;9.476;2024-01-11T11:50:23;0.30;99.90
42479;DHT22;28110;47.080;9.476;2024-01-11T11:52:55;0.30;99.90
42479;DHT22;28110;47.080;9.476;2024-01-11T11:55:24;0.30;99.90
42479;DHT22;28110;47.080;9.476;2024-01-11T11:57:53;0.20;99.90
42479;DHT22;28110;47.080;9.476;2024-01-11T12:00:20;0.30;99.90
42479;DHT22;28110;47.080;9.476;2024-01-11T12:02:47;0.30;99.90
42479;DHT22;28110;47.080;9.476;2024-01-11T12:05:13;0.30;99.90
42479;DHT22;28110;47.080;9.476;2024-01-11T12:07:38;0.20;99.90
42479;DHT22;28110;47.080;9.476;2024-01-11T12:10:05;0.20;99.90
42479;DHT22;28110;47.080;9.476;2024-01-11T12:12:32;0.20;99.90
42479;DHT22;28110;47.080;9.476;2024-01-11T12:14:59;0.20;99.90
42479;DHT22;28110;47.080;9.476;2024-01-11T12:17:24;0.20;99.90
42479;DHT22;28110;47.080;9.476;2024-01-11T12:19:51;0.20;99.90
42479;DHT22;28110;47.080;9.476;2024-01-11T12:22:17;0.30;99.90
42479;DHT22;28110;47.080;9.476;2024-01-11T12:24:43;0.30;99.90
42479;DHT22;28110;47.080;9.476;2024-01-11T12:27:08;0.30;99.90
42479;DHT22;28110;47.080;9.476;2024-01-11T12:29:34;0.30;99.90
42479;DHT22;28110;47.080;9.476;2024-01-11T12:32:00;0.30;99.90
42479;DHT22;28110;47.080;9.476;2024-01-11T12:34:26;0.30;99.90
42479;DHT22;28110;47.080;9.476;2024-01-11T12:36:53;0.30;99.90
42479;DHT22;28110;47.080;9.476;2024-01-11T12:39:26;0.30;99.90
42479;DHT22;28110;47.080;9.476;2024-01-11T12:41:54;0.30;99.90
42479;DHT22;28110;47.080;9.476;2024-01-11T12:44:20;0.30;99.90
42479;DHT22;28110;47.080;9.476;2024-01-11T12:46:47;0.30;99.90
42479;DHT22;28110;47.080;9.476;2024-01-11T12:49:13;0.30;99.90
42479;DHT22;28110;47.080;9.476;2024-01-11T12:51:39;0.30;99.90
42479;DHT22;28110;47.080;9.476;2024-01-11T12:54:13;0.30;99.90
42479;DHT22;28110;47.080;9.476;2024-01-11T12:56:48;0.30;99.90
42479;DHT22;28110;47.080;9.476;2024-01-11T12:59:14;0.30;99.90
42479;DHT22;28110;47.080;9.476;2024-01-11T13:01:42;0.30;99.90
42479;DHT22;28110;47.080;9.476;2024-01-11T13:04:10;0.20;99.90
42479;DHT22;28110;47.080;9.476;2024-01-11T13:06:36;0.20;99.90
42479;DHT22;28110;47.080;9.476;2024-01-11T13:09:02;0.20;99.90
42479;DHT22;28110;47.080;9.476;2024-01-11T13:11:28;0.10;99.90
42479;DHT22;28110;47.080;9.476;2024-01-11T13:13:54;0.00;99.90
42479;DHT22;28110;47.080;9.476;2024-01-11T13:16:20;0.00;99.90
42479;DHT22;28110;47.080;9.476;2024-01-11T13:18:46;0.00;99.90
42479;DHT22;28110;47.080;9.476;2024-01-11T13:21:12;-0.10;99.90
42479;DHT22;28110;47.080;9.476;2024-01-11T13:23:38;0.00;99.90
42479;DHT22;28110;47.080;9.476;2024-01-11T13:26:05;0.00;99.90
42479;DHT22;28110;47.080;9.476;2024-01-11T13:28:30;-0.10;99.90
42479;DHT22;28110;47.080;9.476;2024-01-11T13:30:56;-0.10;99.90
42479;DHT22;28110;47.080;9.476;2024-01-11T13:33:23;-0.20;99.90
42479;DHT22;28110;47.080;9.476;2024-01-11T13:35:49;-0.10;99.90
42479;DHT22;28110;47.080;9.476;2024-01-11T13:38:15;-0.20;99.90
42479;DHT22;28110;47.080;9.476;2024-01-11T13:40:41;-0.20;99.90
42479;DHT22;28110;47.080;9.476;2024-01-11T13:43:08;-0.10;99.90
42479;DHT22;28110;47.080;9.476;2024-01-11T13:45:34;-0.20;99.90
42479;DHT22;28110;47.080;9.476;2024-01-11T13:48:02;-0.10;99.90
42479;DHT22;28110;47.080;9.476;2024-01-11T13:50:28;-0.20;99.90
42479;DHT22;28110;47.080;9.476;2024-01-11T13:52:54;-0.20;99.90
42479;DHT22;28110;47.080;9.476;2024-01-11T13:55:20;-0.30;99.90
42479;DHT22;28110;47.080;9.476;2024-01-11T13:57:47;-0.30;99.90
42479;DHT22;28110;47.080;9.476;2024-01-11T14:00:13;-0.30;99.90
42479;DHT22;28110;47.080;9.476;2024-01-11T14:02:39;-0.30;99.90
42479;DHT22;28110;47.080;9.476;2024-01-11T14:05:08;-0.30;99.90
42479;DHT22;28110;47.080;9.476;2024-01-11T14:07:43;-0.30;99.90
42479;DHT22;28110;47.080;9.476;2024-01-11T14:10:10;-0.40;99.90
42479;DHT22;28110;47.080;9.476;2024-01-11T14:12:37;-0.30;99.90
42479;DHT22;28110;47.080;9.476;2024-01-11T14:15:07;-0.40;99.90
42479;DHT22;28110;47.080;9.476;2024-01-11T14:17:33;-0.40;99.90
42479;DHT22;28110;47.080;9.476;2024-01-11T14:20:02;-0.40;99.90
42479;DHT22;28110;47.080;9.476;2024-01-11T14:22:28;-0.40;99.90
42479;DHT22;28110;47.080;9.476;2024-01-11T14:24:54;-0.40;99.90
42479;DHT22;28110;47.080;9.476;2024-01-11T14:27:20;-0.50;99.90
42479;DHT22;28110;47.080;9.476;2024-01-11T14:29:47;-0.50;99.90
42479;DHT22;28110;47.080;9.476;2024-01-11T14:32:12;-0.50;99.90
42479;DHT22;28110;47.080;9.476;2024-01-11T14:34:41;-0.50;99.90
42479;DHT22;28110;47.080;9.476;2024-01-11T14:37:07;-0.50;99.90
42479;DHT22;28110;47.080;9.476;2024-01-11T14:39:32;-0.60;99.90
42479;DHT22;28110;47.080;9.476;2024-01-11T14:41:58;-0.60;99.90
42479;DHT22;28110;47.080;9.476;2024-01-11T14:44:24;-0.50;99.90
42479;DHT22;28110;47.080;9.476;2024-01-11T14:46:49;-0.60;99.90
42479;DHT22;28110;47.080;9.476;2024-01-11T14:49:15;-0.50;99.90
42479;DHT22;28110;47.080;9.476;2024-01-11T14:51:40;-0.50;99.90
42479;DHT22;28110;47.080;9.476;2024-01-11T14:54:06;-0.50;99.90
42479;DHT22;28110;47.080;9.476;2024-01-11T14:56:32;-0.50;99.90
42479;DHT22;28110;47.080;9.476;2024-01-11T14:59:00;-0.50;99.90
42479;DHT22;28110;47.080;9.476;2024-01-11T15:01:26;-0.50;99.90
42479;DHT22;28110;47.080;9.476;2024-01-11T15:03:52;-0.50;99.90
42479;DHT22;28110;47.080;9.476;2024-01-11T15:06:17;-0.50;99.90
42479;DHT22;28110;47.080;9.476;2024-01-11T15:08:43;-0.50;99.90
42479;DHT22;28110;47.080;9.476;2024-01-11T15:11:08;-0.60;99.90
42479;DHT22;28110;47.080;9.476;2024-01-11T15:13:34;-0.60;99.90
42479;DHT22;28110;47.080;9.476;2024-01-11T15:16:00;-0.60;99.90
42479;DHT22;28110;47.080;9.476;2024-01-11T15:18:26;-0.50;99.90
42479;DHT22;28110;47.080;9.476;2024-01-11T15:20:52;-0.50;99.90
42479;DHT22;28110;47.080;9.476;2024-01-11T15:23:18;-0.50;99.90
42479;DHT22;28110;47.080;9.476;2024-01-11T15:25:44;-0.60;99.90
42479;DHT22;28110;47.080;9.476;2024-01-11T15:28:10;-0.50;99.90
42479;DHT22;28110;47.080;9.476;2024-01-11T15:30:36;-0.60;99.90